Terminal Aerodrome Forecast
Issued by NWS Cleveland, OH

Home | Current Version | Previous Version | Text Only | Print | Product List | Glossary Off
Versions: 1 2 3 4 5 6 7 8 9 10 11 12 13 14 15 16 17 18 19 20 21 22 23 24 25

377
FTUS41 KCLE 260306 AAA
TAFCLE
TAF AMD
KCLE 260306Z 2603/2706 25004KT P6SM BKN250
     FM260900 01005KT P6SM SKC
     FM261800 36010KT P6SM FEW045
     FM270000 VRB03KT P6SM SKC=

USA.gov is the U.S. government's official web portal to all federal, state and local government web resources and services.